General Aviation Weather

Text Reports

Enter one or more of the following location identifiers separated by a space:

Zip Code, Four-Character ICAO or Three-Character IATA airport codes.

METAR - Aviation Routine Weather Report
PAWD - Seward, Alaska
Updated at 4:53 AM GMT on April 24, 2014 (8:53 PM AKDT):
METAR PAWD 240453Z AUTO 16010KT 10SM SCT038 06/01 A2972 RMK AO2 SLP063 T00610011 TSNO
TAF - Terminal Area Forecast
PAWD - Seward, Alaska
Updated at 4:53 AM GMT on April 24, 2014 (8:53 PM AKDT):
No TAF is currently available for this location.
Decoded:
No decoded TAF is available.
PIREP - Pilot Weather Report
PAWD - Seward, Alaska
Updated at 4:53 AM GMT on April 24, 2014 (8:53 PM AKDT):
No PIREP is currently available for this location.
AIRMET - Airmens Meteorological Information
PAWD - Seward, Alaska
Updated at 4:53 AM GMT on April 24, 2014 (8:53 PM AKDT):
No AIRMET is currently available for this location.
SIGMET - Significant Meteorological Information
PAWD - Seward, Alaska
Updated at 4:53 AM GMT on April 24, 2014 (8:53 PM AKDT):
No SIGMET is currently available for this location.
NOTAM - Notice to Airmen
PAWD - Seward, Alaska
Updated at 4:53 AM GMT on April 24, 2014 (8:53 PM AKDT):
No NOTAM is currently available for this location.
Forecast Area
PAWD - Seward, Alaska
Updated at 4:53 AM GMT on April 24, 2014 (8:53 PM AKDT):
No NOTAM is currently available for this location.
Aviation Weather Maps